createdAt,value
2022-11-09T00:01:29.005Z,62.84
2022-11-09T00:04:01.215Z,62.90
2022-11-09T00:06:34.283Z,63.34
2022-11-09T00:09:07.769Z,63.86
2022-11-09T00:11:36.754Z,63.53
2022-11-09T00:14:06.544Z,62.89
2022-11-09T00:16:35.801Z,63.10
2022-11-09T00:19:02.747Z,62.92
2022-11-09T00:21:29.579Z,63.50
2022-11-09T00:24:01.157Z,63.34
2022-11-09T00:26:31.487Z,63.64
2022-11-09T00:29:00.681Z,63.90
2022-11-09T00:31:27.682Z,64.48
2022-11-09T00:33:56.780Z,64.23
2022-11-09T00:36:25.835Z,64.04
2022-11-09T00:38:58.555Z,63.86
2022-11-09T00:41:31.162Z,63.57
2022-11-09T00:44:02.772Z,64.36
2022-11-09T00:46:29.986Z,63.81
2022-11-09T00:48:57.009Z,64.84
2022-11-09T00:51:25.067Z,64.18
2022-11-09T00:53:54.731Z,64.75
2022-11-09T00:56:24.592Z,64.74
2022-11-09T00:58:55.646Z,64.00
2022-11-09T01:01:23.325Z,64.51
2022-11-09T01:03:50.381Z,64.81
2022-11-09T01:06:24.807Z,64.86
2022-11-09T01:08:52.456Z,66.19
2022-11-09T01:11:24.481Z,65.92
2022-11-09T01:13:52.195Z,65.90
2022-11-09T01:16:22.723Z,64.97
2022-11-09T01:18:55.929Z,65.54
2022-11-09T01:21:23.126Z,66.08
2022-11-09T01:23:50.122Z,66.38
2022-11-09T01:26:17.008Z,65.51
2022-11-09T01:28:46.852Z,65.77
2022-11-09T01:31:24.077Z,66.23
2022-11-09T01:33:51.586Z,65.73
2022-11-09T01:36:23.957Z,66.21
2022-11-09T01:38:51.750Z,65.43
2022-11-09T01:41:27.835Z,65.04
2022-11-09T01:44:18.393Z,65.30
2022-11-09T01:47:00.921Z,64.87
2022-11-09T01:49:53.220Z,66.09
2022-11-09T01:52:32.250Z,65.56
2022-11-09T01:55:06.345Z,65.69
2022-11-09T01:58:05.431Z,65.73
2022-11-09T02:00:37.354Z,65.68
2022-11-09T02:03:22.531Z,65.88
2022-11-09T02:05:50.379Z,66.87
2022-11-09T02:08:20.367Z,66.20
2022-11-09T02:11:04.792Z,66.88
2022-11-09T02:13:33.551Z,66.56
2022-11-09T02:16:01.228Z,66.21
2022-11-09T02:18:31.487Z,66.35
2022-11-09T02:20:59.056Z,65.98
2022-11-09T02:23:26.920Z,66.94
2022-11-09T02:26:05.467Z,66.66
2022-11-09T02:28:32.598Z,66.70
2022-11-09T02:31:00.252Z,66.78
2022-11-09T02:33:29.259Z,65.70
2022-11-09T02:35:56.103Z,66.72
2022-11-09T02:38:23.040Z,66.41
2022-11-09T02:40:53.177Z,66.85
2022-11-09T02:43:25.139Z,66.83
2022-11-09T02:45:51.985Z,66.53
2022-11-09T02:48:18.887Z,66.43
2022-11-09T02:50:48.837Z,66.48
2022-11-09T02:53:18.944Z,66.30
2022-11-09T02:55:46.050Z,65.67
2022-11-09T02:58:13.079Z,65.83
2022-11-09T03:00:39.871Z,65.56
2022-11-09T03:03:09.230Z,65.79
2022-11-09T03:05:36.106Z,66.24
2022-11-09T03:08:05.190Z,65.88
2022-11-09T03:10:32.050Z,65.95
2022-11-09T03:12:58.983Z,65.66
2022-11-09T03:15:25.868Z,65.31
2022-11-09T03:17:52.810Z,66.37
2022-11-09T03:20:19.712Z,65.67
2022-11-09T03:22:46.584Z,64.83
2022-11-09T03:25:15.722Z,65.52
2022-11-09T03:27:44.737Z,65.50
2022-11-09T03:30:14.721Z,66.39
2022-11-09T03:32:48.063Z,65.66
2022-11-09T03:35:17.267Z,66.39
2022-11-09T03:37:46.303Z,65.67
2022-11-09T03:40:15.448Z,65.13
2022-11-09T03:42:47.852Z,65.55
2022-11-09T03:45:16.517Z,65.28
2022-11-09T03:47:45.074Z,65.25
2022-11-09T03:50:16.396Z,65.94
2022-11-09T03:52:47.399Z,65.52
2022-11-09T03:55:15.155Z,64.97
2022-11-09T03:57:42.018Z,65.04
2022-11-09T04:00:10.036Z,65.23
2022-11-09T04:02:36.895Z,65.40
2022-11-09T04:05:09.434Z,65.33
2022-11-09T04:07:36.457Z,65.96
2022-11-09T04:10:05.504Z,65.67
2022-11-09T04:12:32.466Z,64.49
2022-11-09T04:14:59.446Z,65.18
2022-11-09T04:17:26.343Z,64.92
2022-11-09T04:19:55.365Z,65.23
2022-11-09T04:22:22.160Z,65.07
2022-11-09T04:24:49.028Z,65.26
2022-11-09T04:27:18.381Z,65.45
2022-11-09T04:29:45.231Z,65.07
2022-11-09T04:32:12.120Z,65.24
2022-11-09T04:34:41.293Z,65.08
2022-11-09T04:37:11.234Z,65.96
2022-11-09T04:39:38.260Z,65.50
2022-11-09T04:42:07.736Z,65.17
2022-11-09T04:44:34.642Z,65.21
2022-11-09T04:47:06.150Z,65.61
2022-11-09T04:49:38.506Z,66.34
2022-11-09T04:52:05.362Z,66.07
2022-11-09T04:54:36.751Z,66.21
2022-11-09T04:57:08.259Z,65.35
2022-11-09T04:59:35.097Z,66.48
2022-11-09T05:02:01.908Z,65.83
2022-11-09T05:04:28.766Z,66.42
2022-11-09T05:06:55.761Z,66.32
2022-11-09T05:09:22.720Z,66.32
2022-11-09T05:11:52.278Z,66.86
2022-11-09T05:14:21.422Z,67.44
2022-11-09T05:16:48.300Z,66.93
2022-11-09T05:19:18.189Z,66.96
2022-11-09T05:21:49.718Z,66.64
2022-11-09T05:24:16.598Z,65.76
2022-11-09T05:26:45.958Z,66.88
2022-11-09T05:29:13.874Z,67.03
2022-11-09T05:31:43.683Z,66.48
2022-11-09T05:34:14.176Z,66.76
2022-11-09T05:36:41.230Z,66.64
2022-11-09T05:39:11.099Z,66.92
2022-11-09T05:41:37.980Z,66.60
2022-11-09T05:44:04.965Z,66.24
2022-11-09T05:46:33.409Z,66.62
2022-11-09T05:49:05.676Z,66.43
2022-11-09T05:51:32.599Z,67.16
2022-11-09T05:53:59.440Z,67.05
2022-11-09T05:56:28.778Z,66.22
2022-11-09T05:58:55.620Z,66.73
2022-11-09T06:01:24.789Z,66.98
2022-11-09T06:03:54.719Z,67.35
2022-11-09T06:06:21.609Z,67.39
2022-11-09T06:08:50.729Z,67.07
2022-11-09T06:11:23.526Z,67.76
2022-11-09T06:13:52.135Z,67.98
2022-11-09T06:16:24.315Z,67.83
2022-11-09T06:18:51.386Z,67.25
2022-11-09T06:21:18.570Z,67.89
2022-11-09T06:23:48.247Z,68.19
2022-11-09T06:26:15.482Z,68.28
2022-11-09T06:28:42.457Z,68.77
2022-11-09T06:31:18.187Z,68.87
2022-11-09T06:33:45.212Z,69.55
2022-11-09T06:36:15.074Z,68.77
2022-11-09T06:38:44.333Z,69.60
2022-11-09T06:41:11.243Z,70.13
2022-11-09T06:43:38.144Z,69.91
2022-11-09T06:46:05.703Z,68.90
2022-11-09T06:48:34.873Z,68.87
2022-11-09T06:51:05.793Z,67.96
2022-11-09T06:53:34.981Z,68.49
2022-11-09T06:56:08.323Z,68.43
2022-11-09T06:58:35.758Z,69.08
2022-11-09T07:01:13.888Z,68.87
2022-11-09T07:03:41.132Z,69.28
2022-11-09T07:06:12.090Z,68.93
2022-11-09T07:08:42.042Z,68.83
2022-11-09T07:11:16.897Z,69.16
2022-11-09T07:13:52.253Z,69.75
2022-11-09T07:16:21.861Z,69.67
2022-11-09T07:18:48.784Z,69.83
2022-11-09T07:21:15.833Z,69.28
2022-11-09T07:23:43.500Z,68.68
2022-11-09T07:26:10.622Z,68.52
2022-11-09T07:28:37.552Z,67.71
2022-11-09T07:31:04.714Z,67.95
2022-11-09T07:33:33.367Z,68.70
2022-11-09T07:36:05.305Z,68.69
2022-11-09T07:38:35.145Z,68.59
2022-11-09T07:41:02.447Z,68.62
2022-11-09T07:43:30.059Z,68.56
2022-11-09T07:46:00.085Z,68.88
2022-11-09T07:48:29.473Z,68.28
2022-11-09T07:51:00.224Z,68.73
2022-11-09T07:53:27.240Z,68.62
2022-11-09T07:56:02.462Z,69.49
2022-11-09T07:58:36.060Z,69.22
2022-11-09T08:01:08.851Z,68.94
2022-11-09T08:03:38.321Z,69.28
2022-11-09T08:06:07.680Z,68.92
2022-11-09T08:08:40.533Z,68.73
2022-11-09T08:11:07.512Z,67.88
2022-11-09T08:13:34.459Z,68.99
2022-11-09T08:16:05.501Z,68.46
2022-11-09T08:18:34.474Z,68.24
2022-11-09T08:21:05.349Z,67.84
2022-11-09T08:23:32.563Z,67.00
2022-11-09T08:26:04.865Z,67.93
2022-11-09T08:28:32.957Z,66.93
2022-11-09T08:31:05.633Z,68.73
2022-11-09T08:33:39.670Z,68.76
2022-11-09T08:36:15.988Z,67.05
2022-11-09T08:38:44.547Z,67.04
2022-11-09T08:41:13.753Z,66.75
2022-11-09T08:43:41.428Z,65.80
2022-11-09T08:46:08.789Z,66.22
2022-11-09T08:48:36.152Z,65.61
2022-11-09T08:51:05.749Z,65.34
2022-11-09T08:53:37.297Z,67.39
2022-11-09T08:56:10.995Z,68.04
2022-11-09T08:58:38.070Z,67.51
2022-11-09T09:01:16.758Z,66.80
2022-11-09T09:03:44.239Z,67.39
2022-11-09T09:06:11.295Z,68.86
2022-11-09T09:08:38.332Z,70.24
2022-11-09T09:11:08.431Z,71.96
2022-11-09T09:13:43.100Z,71.42
2022-11-09T09:16:17.885Z,72.92
2022-11-09T09:18:44.855Z,74.75
2022-11-09T09:21:16.752Z,74.57
2022-11-09T09:23:43.685Z,74.19
2022-11-09T09:26:10.622Z,75.27
2022-11-09T09:28:38.119Z,75.70
2022-11-09T09:31:05.117Z,75.95
2022-11-09T09:33:34.643Z,75.74
2022-11-09T09:36:04.254Z,74.72
2022-11-09T09:38:31.428Z,66.66
2022-11-09T09:41:04.621Z,59.96
2022-11-09T09:43:43.020Z,54.95
2022-11-09T09:46:40.656Z,53.64
2022-11-09T09:49:20.655Z,51.79
2022-11-09T09:52:06.782Z,49.00
2022-11-09T09:54:42.464Z,47.98
2022-11-09T09:57:20.966Z,46.38
2022-11-09T09:59:57.509Z,42.97
2022-11-09T10:02:28.020Z,39.81
2022-11-09T10:05:00.277Z,40.55
2022-11-09T10:07:32.783Z,42.75
2022-11-09T10:10:24.257Z,43.35
2022-11-09T10:13:25.149Z,44.77
2022-11-09T10:16:10.168Z,41.95
2022-11-09T10:19:07.924Z,43.93
2022-11-09T10:22:20.666Z,48.19
2022-11-09T10:27:58.256Z,56.20
2022-11-09T10:30:29.075Z,59.63
2022-11-09T10:33:11.474Z,55.65
2022-11-09T10:36:08.624Z,55.86
2022-11-09T10:38:49.482Z,54.73
2022-11-09T10:41:33.951Z,52.24
2022-11-09T10:44:05.449Z,53.41
2022-11-09T10:47:12.502Z,54.98
2022-11-09T10:49:41.066Z,50.50
2022-11-09T10:52:43.002Z,49.22
2022-11-09T10:55:23.091Z,42.80
2022-11-09T10:58:35.373Z,43.23
2022-11-09T11:01:26.845Z,44.80
2022-11-09T11:03:57.408Z,45.64
2022-11-09T11:06:24.183Z,48.84
2022-11-09T11:09:11.047Z,48.83
2022-11-09T11:11:39.818Z,51.17
2022-11-09T11:14:23.314Z,54.70
2022-11-09T11:16:53.131Z,54.35
2022-11-09T11:19:43.017Z,54.14
2022-11-09T11:22:23.223Z,49.98
2022-11-09T11:25:01.762Z,45.56
2022-11-09T11:27:48.988Z,45.26
2022-11-09T11:30:37.545Z,41.86
2022-11-09T11:33:15.882Z,42.04
2022-11-09T11:35:48.942Z,41.78
2022-11-09T11:38:45.145Z,43.00
2022-11-09T11:41:45.999Z,43.40
2022-11-09T11:44:54.864Z,45.43
2022-11-09T11:47:51.518Z,46.62
2022-11-09T11:50:49.700Z,50.10
2022-11-09T11:53:22.435Z,47.51
2022-11-09T11:56:25.948Z,47.27
2022-11-09T11:59:24.837Z,46.60
2022-11-09T12:02:03.501Z,45.59
2022-11-09T12:05:07.531Z,41.46
2022-11-09T12:07:56.913Z,41.49
2022-11-09T12:10:50.966Z,38.24
2022-11-09T12:14:01.116Z,35.28
2022-11-09T12:16:36.934Z,34.51
2022-11-09T12:20:01.004Z,35.33
2022-11-09T12:22:42.047Z,37.32
2022-11-09T12:25:19.759Z,38.83
2022-11-09T12:28:17.196Z,40.30
2022-11-09T12:31:43.957Z,42.25
2022-11-09T12:34:59.358Z,42.39
2022-11-09T12:37:37.682Z,41.58
2022-11-09T12:40:26.593Z,39.83
2022-11-09T12:43:05.910Z,39.09
2022-11-09T12:45:36.344Z,40.32
2022-11-09T12:48:16.783Z,44.05
2022-11-09T12:50:44.381Z,43.64
2022-11-09T12:53:14.164Z,42.98
2022-11-09T12:56:18.857Z,43.97
2022-11-09T12:58:46.207Z,45.01
2022-11-09T13:01:34.643Z,41.25
2022-11-09T13:04:06.398Z,40.48
2022-11-09T13:06:34.036Z,40.30
2022-11-09T13:09:16.214Z,38.31
2022-11-09T13:11:50.096Z,37.77
2022-11-09T13:14:23.211Z,38.20
2022-11-09T13:16:55.907Z,38.62
2022-11-09T13:19:51.210Z,40.85
2022-11-09T13:22:20.717Z,42.50
2022-11-09T13:25:28.855Z,43.45
2022-11-09T13:27:57.780Z,42.85
2022-11-09T13:30:30.308Z,41.88
2022-11-09T13:33:06.431Z,41.21
2022-11-09T13:35:42.742Z,41.27
2022-11-09T13:38:23.421Z,40.80
2022-11-09T13:41:04.369Z,41.28
2022-11-09T13:43:37.325Z,42.61
2022-11-09T13:46:27.736Z,40.59
2022-11-09T13:48:55.305Z,42.80
2022-11-09T13:51:48.326Z,39.90
2022-11-09T13:54:35.245Z,39.71
2022-11-09T13:57:06.550Z,37.73
2022-11-09T13:59:47.076Z,37.72
2022-11-09T14:02:18.526Z,38.02
2022-11-09T14:04:45.847Z,40.52
2022-11-09T14:07:33.006Z,43.09
2022-11-09T14:10:34.885Z,45.87
2022-11-09T14:14:03.000Z,48.06
2022-11-09T14:16:39.146Z,48.27
2022-11-09T14:19:30.772Z,48.76
2022-11-09T14:22:02.373Z,49.94
2022-11-09T14:24:35.423Z,49.82
2022-11-09T14:27:23.498Z,52.27
2022-11-09T14:30:00.967Z,52.01
2022-11-09T14:32:35.813Z,51.84
2022-11-09T14:35:23.502Z,51.38
2022-11-09T14:37:52.930Z,51.94
2022-11-09T14:40:33.123Z,52.17
2022-11-09T14:43:30.539Z,53.23
2022-11-09T14:46:16.570Z,53.22
2022-11-09T14:49:02.245Z,53.65
2022-11-09T14:51:35.597Z,54.10
2022-11-09T14:54:09.662Z,53.88
2022-11-09T14:56:41.719Z,54.86
2022-11-09T14:59:13.750Z,55.47
2022-11-09T15:01:40.978Z,56.82
2022-11-09T15:04:22.780Z,57.06
2022-11-09T15:07:03.972Z,57.50
2022-11-09T15:09:43.868Z,57.87
2022-11-09T15:12:19.294Z,57.31
2022-11-09T15:15:08.882Z,57.05
2022-11-09T15:17:38.595Z,56.50
2022-11-09T15:20:08.579Z,57.71
2022-11-09T15:23:06.204Z,57.66
2022-11-09T15:25:53.779Z,57.51
2022-11-09T15:28:30.644Z,58.10
2022-11-09T15:31:00.426Z,57.52
2022-11-09T15:33:29.951Z,57.61
2022-11-09T15:36:07.310Z,58.83
2022-11-09T15:38:44.417Z,58.28
2022-11-09T15:41:24.484Z,58.41
2022-11-09T15:43:51.648Z,59.16
2022-11-09T15:46:28.832Z,59.61
2022-11-09T15:49:06.091Z,60.28
2022-11-09T15:51:35.591Z,59.99
2022-11-09T15:54:02.837Z,60.18
2022-11-09T15:56:29.798Z,60.39
2022-11-09T15:59:01.444Z,60.13
2022-11-09T16:01:32.949Z,59.49
2022-11-09T16:04:03.112Z,60.16
2022-11-09T16:06:32.358Z,60.95
2022-11-09T16:08:59.405Z,60.88
2022-11-09T16:11:26.429Z,60.52
2022-11-09T16:13:55.970Z,60.82
2022-11-09T16:16:25.530Z,61.51
2022-11-09T16:18:52.520Z,61.83
2022-11-09T16:21:22.006Z,61.30
2022-11-09T16:23:58.524Z,61.39
2022-11-09T16:26:26.170Z,61.20
2022-11-09T16:28:55.635Z,61.36
2022-11-09T16:31:48.236Z,61.46
2022-11-09T16:34:12.024Z,60.89
2022-11-09T16:36:47.385Z,61.61
2022-11-09T16:39:18.752Z,61.51
2022-11-09T16:41:51.800Z,61.68
2022-11-09T16:44:23.546Z,61.79
2022-11-09T16:46:53.019Z,61.24
2022-11-09T16:49:20.113Z,61.44
2022-11-09T16:51:47.159Z,61.09
2022-11-09T16:54:14.096Z,61.71
2022-11-09T16:56:43.683Z,61.01
2022-11-09T16:59:13.546Z,60.99
2022-11-09T17:01:42.572Z,61.31
2022-11-09T17:04:09.664Z,62.31
2022-11-09T17:06:39.093Z,61.09
2022-11-09T17:09:08.574Z,61.42
2022-11-09T17:11:38.006Z,61.67
2022-11-09T17:14:07.560Z,61.88
2022-11-09T17:16:35.125Z,61.40
2022-11-09T17:19:02.310Z,61.99
2022-11-09T17:21:29.931Z,61.57
2022-11-09T17:23:59.971Z,60.87
2022-11-09T17:26:27.351Z,61.50
2022-11-09T17:28:54.283Z,61.47
2022-11-09T17:31:23.872Z,61.76
2022-11-09T17:33:50.772Z,61.88
2022-11-09T17:36:41.595Z,62.01
2022-11-09T17:39:07.669Z,60.90
2022-11-09T17:41:42.263Z,61.38
2022-11-09T17:44:11.874Z,61.08
2022-11-09T17:46:38.785Z,61.58
2022-11-09T17:49:09.814Z,61.02
2022-11-09T17:51:37.815Z,61.50
2022-11-09T17:54:04.915Z,62.02
2022-11-09T17:56:33.726Z,62.20
2022-11-09T17:59:00.851Z,61.87
2022-11-09T18:01:30.595Z,62.41
2022-11-09T18:04:04.236Z,62.04
2022-11-09T18:06:33.402Z,62.13
2022-11-09T18:09:34.567Z,62.75
2022-11-09T18:11:48.122Z,62.35
2022-11-09T18:14:17.629Z,61.54
2022-11-09T18:16:47.059Z,61.37
2022-11-09T18:19:14.120Z,61.73
2022-11-09T18:21:45.639Z,61.52
2022-11-09T18:24:13.812Z,62.21
2022-11-09T18:26:40.780Z,61.99
2022-11-09T18:29:07.708Z,61.90
2022-11-09T18:31:34.598Z,62.37
2022-11-09T18:34:01.497Z,62.50
2022-11-09T18:36:30.575Z,61.80
2022-11-09T18:38:57.650Z,60.94
2022-11-09T18:41:25.768Z,61.64
2022-11-09T18:43:55.157Z,61.34
2022-11-09T18:46:30.674Z,61.74
2022-11-09T18:48:57.643Z,61.11
2022-11-09T18:51:25.002Z,61.48
2022-11-09T18:53:52.310Z,61.76
2022-11-09T18:56:24.882Z,60.61
2022-11-09T18:58:54.913Z,61.74
2022-11-09T19:01:24.833Z,61.55
2022-11-09T19:03:57.805Z,61.24
2022-11-09T19:06:26.894Z,60.91
2022-11-09T19:09:12.647Z,61.36
2022-11-09T19:11:42.160Z,61.63
2022-11-09T19:14:12.332Z,61.42
2022-11-09T19:16:39.281Z,60.54
2022-11-09T19:19:06.370Z,61.07
2022-11-09T19:21:41.426Z,60.38
2022-11-09T19:24:14.354Z,61.11
2022-11-09T19:26:43.912Z,61.62
2022-11-09T19:29:13.523Z,61.69
2022-11-09T19:31:46.555Z,61.31
2022-11-09T19:34:20.301Z,61.14
2022-11-09T19:36:47.956Z,61.11
2022-11-09T19:39:16.148Z,61.44
2022-11-09T19:41:43.596Z,61.98
2022-11-09T19:44:13.138Z,61.74
2022-11-09T19:46:42.474Z,61.52
2022-11-09T19:49:09.916Z,61.21
2022-11-09T19:51:39.706Z,61.65
2022-11-09T19:54:07.224Z,62.61
2022-11-09T19:56:37.101Z,62.84
2022-11-09T19:59:05.555Z,62.94
2022-11-09T20:01:32.641Z,61.91
2022-11-09T20:04:09.022Z,62.37
2022-11-09T20:06:39.677Z,62.60
2022-11-09T20:09:06.853Z,62.99
2022-11-09T20:11:52.625Z,62.59
2022-11-09T20:14:20.551Z,62.78
2022-11-09T20:16:49.866Z,62.88
2022-11-09T20:19:20.027Z,63.00
2022-11-09T20:21:49.621Z,63.00
2022-11-09T20:24:16.783Z,62.74
2022-11-09T20:26:44.025Z,63.83
2022-11-09T20:29:11.377Z,64.37
2022-11-09T20:31:40.734Z,63.65
2022-11-09T20:34:09.998Z,63.41
2022-11-09T20:36:37.229Z,63.73
2022-11-09T20:39:04.706Z,63.71
2022-11-09T20:41:36.486Z,64.02
2022-11-09T20:44:03.603Z,62.95
2022-11-09T20:46:35.842Z,63.22
2022-11-09T20:49:04.245Z,63.49
2022-11-09T20:51:32.161Z,65.38
2022-11-09T20:54:02.425Z,64.66
2022-11-09T20:56:35.005Z,66.92
2022-11-09T20:59:01.873Z,69.07
2022-11-09T21:01:28.971Z,69.56
2022-11-09T21:03:55.900Z,70.78
2022-11-09T21:06:22.911Z,72.69
2022-11-09T21:08:57.576Z,72.78
2022-11-09T21:11:35.846Z,72.24
2022-11-09T21:14:03.493Z,71.12
2022-11-09T21:16:30.606Z,71.25
2022-11-09T21:18:57.663Z,71.89
2022-11-09T21:21:25.441Z,71.69
2022-11-09T21:24:11.323Z,73.04
2022-11-09T21:26:57.048Z,72.74
2022-11-09T21:29:43.242Z,73.17
2022-11-09T21:32:15.544Z,73.57
2022-11-09T21:34:45.309Z,72.85
2022-11-09T21:37:15.083Z,73.30
2022-11-09T21:39:42.984Z,73.44
2022-11-09T21:42:12.419Z,74.07
2022-11-09T21:44:40.010Z,74.68
2022-11-09T21:47:07.891Z,74.69
2022-11-09T21:49:37.888Z,74.70
2022-11-09T21:52:05.158Z,74.25
2022-11-09T21:54:32.050Z,74.13
2022-11-09T21:57:02.724Z,74.34
2022-11-09T21:59:31.909Z,74.91
2022-11-09T22:01:58.853Z,75.70
2022-11-09T22:04:27.904Z,74.98
2022-11-09T22:06:57.964Z,74.50
2022-11-09T22:09:32.462Z,74.18
2022-11-09T22:12:26.055Z,74.82
2022-11-09T22:15:11.642Z,75.13
2022-11-09T22:17:41.099Z,75.02
2022-11-09T22:20:28.280Z,75.02
2022-11-09T22:22:57.656Z,74.30
2022-11-09T22:25:27.602Z,74.59
2022-11-09T22:27:56.049Z,74.28
2022-11-09T22:30:23.000Z,74.16
2022-11-09T22:32:54.563Z,74.00
2022-11-09T22:35:23.690Z,73.64
2022-11-09T22:37:53.053Z,74.09
2022-11-09T22:40:22.853Z,73.89
2022-11-09T22:42:58.270Z,73.96
2022-11-09T22:45:25.241Z,72.97
2022-11-09T22:47:52.190Z,73.57
2022-11-09T22:50:19.161Z,73.37
2022-11-09T22:52:46.066Z,73.34
2022-11-09T22:55:13.137Z,73.68
2022-11-09T22:57:42.558Z,73.63
2022-11-09T23:00:13.601Z,73.29
2022-11-09T23:02:40.631Z,74.02
2022-11-09T23:05:10.520Z,73.92
2022-11-09T23:07:37.430Z,73.69
2022-11-09T23:10:08.031Z,73.17
2022-11-09T23:12:35.239Z,72.84
2022-11-09T23:15:05.270Z,73.25
2022-11-09T23:17:53.149Z,73.45
2022-11-09T23:20:25.096Z,73.69
2022-11-09T23:22:52.214Z,74.21
2022-11-09T23:25:37.744Z,73.42
2022-11-09T23:28:07.395Z,73.04
2022-11-09T23:30:36.878Z,73.54
2022-11-09T23:33:05.973Z,73.28
2022-11-09T23:35:32.938Z,72.64
2022-11-09T23:38:01.152Z,73.59
2022-11-09T23:40:29.591Z,73.75
2022-11-09T23:43:03.023Z,74.24
2022-11-09T23:45:32.824Z,75.00
2022-11-09T23:48:00.069Z,74.07
2022-11-09T23:50:27.558Z,74.25
2022-11-09T23:52:59.446Z,74.39
2022-11-09T23:55:30.527Z,74.79
2022-11-09T23:58:00.891Z,74.71
